Terminal Aerodrome Forecast
Issued by NWS

Home | Current Version | Previous Version | Graphics & Text | Print | Product List | Glossary Off
Versions: 1 2 3 4 5 6 7 8 9 10 11 12 13 14 15

080
FTUS43 KUNR 231122
TAFGCC
TAF
KGCC 231122Z 2312/2412 32017G27KT P6SM SCT080
     FM231500 32026G36KT P6SM SCT200
     FM240000 32015KT P6SM SKC
     FM240500 29008KT P6SM SKC=

USA.gov is the U.S. government's official web portal to all federal, state and local government web resources and services.